Etusivu
METAR-TAF:

METAR-TAF

Lentoasemat :

Sherbrooke, Quebec, Kanada

Leveyspiiri: 45-24N, Pituuspiiri: 071-53W, korkeus merenpinnasta: 170 m

Tämänhetkinen sää

Tämä raportti tehtiin 23 minuuttia sitten, kello 06.00 UTC
tyyntä
Lämpötila 9°C
Kosteus 100%
Ilmanpaine 1021 hPa
Näkyvyys: 14.5 km
Pilvistä 8500 ft:n korkeudessa

METAR: CYSC 220600Z AUTO 00000KT 9SM OVC085 09/09 A3014 RMK SLP212

Aika: 02:23 (06:23 UTC)

Sääennuste

Tämä raportti tehtiin 6 tuntia ja 45 minuuttia sitten, kello 23.38 UTC
Ennuste voimassa 22. päivästä klo 00 UTC - 22. päivään klo 03 UTC
Tuuli 3 kn eri suunnista
Näkyvyys: 10 km
Muutamia pilviä 5000 ft:n korkeudessa
Hajonneita pilviä 9000 ft:n korkeudessa
Ajoittain
22. päivästä klo 00 UTC - 22. päivään klo 03 UTC
Näkyvyys: 8.0 km
Hajonneita pilviä 5000 ft:n korkeudessa
heikkoa sadetta, utua

TAF: CYSC 212338Z 2200/2203 VRB03KT P6SM FEW050 BKN090 TEMPO 2200/2203 5SM -RA BR BKN050 RMK FCST BASED ON AUTO OBS. NXT FCST WILL BE ISSUED AT 221045Z

Säähavainnot ja -ennusteet yli 4000 lentoasemalta (METAR- ja TAF-raportit).

Käytössä olevat sääasemat on merkitty karttaan keltaisilla ja punaisilla pisteillä.

Aseta hiiri pisteen päälle nähdäksesi sääaseman nimen.

Klikkaa sitten nähdäksesi säähavainnot ja -ennusteet.

Kartan vaihtaminen: klikkaa mustalla rastilla varustettuja vihreitä pisteitä, niin voit zoomata sisään; viivalla varustettua vihreää pistettä, niin voit zoomata ulos tai vihreitä nuolia, niin pääset viereisille kartoille.


METAR-TAF: